createdAt,value
2024-03-01T00:00:08.280Z,1.13
2024-03-01T00:01:08.537Z,1.11
2024-03-01T00:02:08.317Z,1.13
2024-03-01T00:03:08.348Z,1.13
2024-03-01T00:04:08.408Z,1.10
2024-03-01T00:05:08.535Z,1.10
2024-03-01T00:06:08.472Z,1.07
2024-03-01T00:58:13.319Z,1.10
2024-03-01T00:59:08.975Z,1.30
2024-03-01T01:00:09.009Z,1.97
2024-03-01T01:01:09.104Z,3.17
2024-03-01T01:02:09.197Z,5.20
2024-03-01T01:03:09.109Z,8.07
2024-03-01T01:04:09.205Z,6.20
2024-03-01T01:05:09.324Z,4.49
2024-03-01T01:06:09.294Z,3.66
2024-03-01T01:07:09.401Z,2.97
2024-03-01T01:08:09.416Z,2.49
2024-03-01T01:09:09.474Z,2.17
2024-03-01T01:10:09.638Z,1.98
2024-03-01T01:11:09.685Z,1.80
2024-03-01T01:12:09.703Z,1.67
2024-03-01T01:13:09.756Z,1.55
2024-03-01T01:14:09.767Z,1.47
2024-03-01T01:15:13.050Z,1.41
2024-03-01T01:16:10.209Z,1.40
2024-03-01T01:17:09.792Z,1.33
2024-03-01T01:18:09.812Z,1.28
2024-03-01T01:19:09.865Z,1.23
2024-03-01T01:20:09.898Z,1.19
2024-03-01T01:21:09.947Z,1.16
2024-03-01T01:22:10.028Z,1.17
2024-03-01T01:23:10.093Z,1.14
2024-03-01T01:24:10.171Z,1.10
2024-03-01T01:25:10.288Z,1.07
2024-03-01T01:26:10.288Z,1.06
2024-03-01T01:27:10.357Z,1.04
2024-03-01T01:28:10.495Z,1.02
2024-03-01T01:29:10.487Z,0.99
2024-03-01T01:30:10.703Z,0.99
2024-03-01T01:31:10.659Z,0.98
2024-03-01T01:32:10.696Z,0.95
2024-03-01T01:33:10.819Z,0.97
2024-03-01T01:34:10.845Z,0.95
2024-03-01T01:35:10.848Z,0.94
2024-03-01T01:36:10.897Z,0.92
2024-03-01T01:37:11.140Z,0.94
2024-03-01T01:38:11.094Z,0.94
2024-03-01T01:39:11.070Z,0.90
2024-03-01T01:40:11.190Z,0.93
2024-03-01T01:41:11.211Z,0.92
2024-03-01T01:42:11.273Z,0.90
2024-03-01T01:43:11.376Z,0.91
2024-03-01T01:44:11.416Z,0.89
2024-03-01T01:45:11.474Z,0.91
2024-03-01T01:46:11.755Z,0.90
2024-03-01T01:47:11.631Z,0.88
2024-03-01T01:48:11.764Z,0.90
2024-03-01T01:49:11.750Z,0.89
2024-03-01T01:50:11.759Z,0.89
2024-03-01T01:51:11.813Z,0.89
2024-03-01T01:52:11.944Z,0.90
2024-03-01T01:53:20.575Z,0.90
2024-03-01T01:54:11.967Z,0.91
2024-03-01T01:55:12.027Z,0.91
2024-03-01T01:56:11.965Z,0.92
2024-03-01T01:57:11.955Z,0.93
2024-03-01T01:58:11.981Z,0.94
2024-03-01T01:59:11.967Z,0.92
2024-03-01T02:00:11.971Z,0.91
2024-03-01T02:01:12.052Z,0.93
2024-03-01T02:02:12.122Z,0.92
2024-03-01T02:03:11.989Z,0.92
2024-03-01T02:04:12.014Z,0.91
2024-03-01T02:05:11.975Z,0.92
2024-03-01T02:06:11.974Z,0.91
2024-03-01T02:07:12.013Z,0.94
2024-03-01T02:08:11.982Z,0.91
2024-03-01T02:09:11.983Z,0.92
2024-03-01T02:10:12.019Z,0.91
2024-03-01T02:11:11.981Z,0.91
2024-03-01T02:12:12.074Z,0.90
2024-03-01T02:13:12.015Z,0.92
2024-03-01T02:14:12.019Z,0.88
2024-03-01T02:15:11.992Z,0.89
2024-03-01T02:16:12.028Z,0.90
2024-03-01T02:17:12.000Z,0.90
2024-03-01T02:18:12.048Z,0.90
2024-03-01T02:19:12.042Z,0.89
2024-03-01T02:20:12.002Z,0.90
2024-03-01T02:21:12.065Z,0.90
2024-03-01T02:22:12.138Z,0.89
2024-03-01T02:23:12.142Z,0.91
2024-03-01T02:24:12.214Z,0.90
2024-03-01T02:25:12.296Z,0.88
2024-03-01T02:26:12.338Z,0.88
2024-03-01T02:27:12.409Z,0.90
2024-03-01T02:28:12.510Z,0.91
2024-03-01T02:29:12.552Z,0.91
2024-03-01T02:30:12.633Z,0.87
2024-03-01T02:31:12.708Z,0.87
2024-03-01T02:32:12.745Z,0.90
2024-03-01T02:33:12.809Z,0.92
2024-03-01T02:34:13.003Z,0.91
2024-03-01T02:35:12.908Z,0.91
2024-03-01T02:36:12.975Z,0.90
2024-03-01T02:37:13.745Z,0.89
2024-03-01T02:38:13.089Z,0.88
2024-03-01T02:39:13.155Z,0.91
2024-03-01T02:40:13.408Z,0.92
2024-03-01T02:41:13.300Z,0.89
2024-03-01T02:42:13.384Z,0.91
2024-03-01T02:43:13.455Z,0.88
2024-03-01T02:44:13.503Z,0.89
2024-03-01T02:45:13.643Z,0.90
2024-03-01T02:46:13.697Z,0.90
2024-03-01T02:47:13.674Z,0.93
2024-03-01T02:48:13.747Z,0.93
2024-03-01T02:49:13.862Z,0.92
2024-03-01T02:50:13.997Z,0.89
2024-03-01T02:51:13.969Z,0.90
2024-03-01T02:52:13.993Z,0.91
2024-03-01T02:53:14.012Z,0.90
2024-03-01T02:54:14.054Z,0.89
2024-03-01T02:55:14.106Z,0.90
2024-03-01T02:56:14.160Z,0.87
2024-03-01T02:57:14.245Z,0.88
2024-03-01T02:58:14.327Z,0.90
2024-03-01T02:59:14.374Z,0.89
2024-03-01T03:00:14.453Z,0.89
2024-03-01T03:01:14.543Z,0.87
2024-03-01T03:02:14.534Z,0.87
2024-03-01T03:03:14.600Z,0.87
2024-03-01T03:04:14.700Z,0.88
2024-03-01T03:05:14.742Z,0.90
2024-03-01T03:06:14.840Z,0.89
2024-03-01T03:07:14.982Z,0.91
2024-03-01T03:08:14.935Z,0.89
2024-03-01T03:09:15.004Z,0.90
2024-03-01T03:10:15.117Z,0.90
2024-03-01T03:11:15.157Z,0.90
2024-03-01T03:12:15.169Z,0.90
2024-03-01T03:13:15.263Z,0.91
2024-03-01T03:14:15.314Z,0.92
2024-03-01T03:15:15.490Z,0.90
2024-03-01T03:16:15.487Z,0.92
2024-03-01T03:17:15.519Z,0.91
2024-03-01T03:18:15.638Z,0.91
2024-03-01T03:19:15.683Z,0.89
2024-03-01T03:20:15.694Z,0.88
2024-03-01T03:21:15.748Z,0.89
2024-03-01T03:22:15.956Z,0.89
2024-03-01T03:23:15.857Z,0.87
2024-03-01T03:24:15.921Z,0.90
2024-03-01T03:25:16.562Z,0.87
2024-03-01T03:26:16.068Z,0.88
2024-03-01T03:27:16.124Z,0.87
2024-03-01T03:28:16.278Z,0.88
2024-03-01T03:29:16.268Z,0.90
2024-03-01T03:30:16.327Z,0.88
2024-03-01T03:31:16.472Z,0.90
2024-03-01T03:32:16.472Z,0.88
2024-03-01T03:33:16.538Z,0.90
2024-03-01T03:34:16.619Z,0.91
2024-03-01T03:35:16.690Z,0.91
2024-03-01T03:36:16.728Z,0.91
2024-03-01T03:37:16.825Z,0.90
2024-03-01T03:38:16.986Z,0.90
2024-03-01T03:39:16.915Z,0.89
2024-03-01T03:40:17.237Z,0.88
2024-03-01T03:41:17.061Z,0.87
2024-03-01T03:42:17.126Z,0.90
2024-03-01T03:43:17.307Z,0.89
2024-03-01T03:44:17.266Z,0.87
2024-03-01T03:45:17.383Z,0.89
2024-03-01T03:46:17.459Z,0.89
2024-03-01T03:47:17.479Z,0.88
2024-03-01T03:48:17.641Z,0.90
2024-03-01T03:49:17.695Z,0.89
2024-03-01T03:50:17.692Z,0.88
2024-03-01T03:51:17.760Z,0.87
2024-03-01T03:52:17.875Z,0.88
2024-03-01T03:53:17.897Z,0.86
2024-03-01T03:54:17.987Z,0.90
2024-03-01T03:55:18.070Z,0.92
2024-03-01T03:56:18.113Z,0.88
2024-03-01T03:57:18.175Z,0.90
2024-03-01T03:58:18.266Z,0.90
2024-03-01T03:59:18.317Z,0.91
2024-03-01T04:00:18.387Z,0.90
2024-03-01T04:01:21.304Z,0.89
2024-03-01T04:02:18.489Z,0.89
2024-03-01T04:03:18.510Z,0.90
2024-03-01T04:04:18.565Z,0.90
2024-03-01T04:05:18.625Z,0.88
2024-03-01T04:06:18.675Z,0.86
2024-03-01T04:07:18.768Z,0.87
2024-03-01T04:08:18.807Z,0.84
2024-03-01T04:09:18.873Z,0.84
2024-03-01T04:10:19.214Z,0.87
2024-03-01T04:11:19.053Z,0.86
2024-03-01T04:12:19.090Z,0.86
2024-03-01T04:13:19.218Z,0.87
2024-03-01T04:14:19.225Z,0.87
2024-03-01T04:15:19.313Z,0.86
2024-03-01T04:16:19.521Z,0.88
2024-03-01T04:17:19.495Z,0.89
2024-03-01T04:18:19.503Z,0.88
2024-03-01T04:19:19.624Z,0.86
2024-03-01T04:20:19.639Z,0.87
2024-03-01T04:21:19.710Z,0.85
2024-03-01T04:22:19.818Z,0.88
2024-03-01T04:23:19.900Z,0.88
2024-03-01T04:24:19.909Z,0.87
2024-03-01T04:25:19.992Z,0.85
2024-03-01T04:26:20.153Z,0.87
2024-03-01T04:27:20.108Z,0.85
2024-03-01T04:28:20.223Z,0.88
2024-03-01T04:29:20.182Z,0.87
2024-03-01T04:30:20.234Z,0.86
2024-03-01T04:31:20.295Z,0.90
2024-03-01T04:32:20.335Z,0.88
2024-03-01T04:33:20.408Z,0.88
2024-03-01T04:34:20.462Z,0.88
2024-03-01T04:35:20.499Z,0.87
2024-03-01T04:36:20.553Z,0.89
2024-03-01T04:37:20.674Z,0.87
2024-03-01T04:38:27.847Z,0.50
2024-03-01T04:39:28.856Z,0.50
2024-03-01T04:40:29.514Z,0.50
2024-03-01T04:41:28.966Z,0.50
2024-03-01T04:42:28.851Z,0.50
2024-03-01T04:43:28.972Z,0.50
2024-03-01T04:44:28.875Z,0.50
2024-03-01T04:45:28.861Z,0.51
2024-03-01T04:46:28.953Z,0.51
2024-03-01T04:47:28.888Z,0.51
2024-03-01T04:48:28.859Z,0.51
2024-03-01T04:49:28.908Z,0.51
2024-03-01T04:50:28.873Z,0.51
2024-03-01T04:51:28.867Z,0.51
2024-03-01T04:52:28.886Z,0.53
2024-03-01T04:53:28.897Z,0.52
2024-03-01T04:54:28.899Z,0.51
2024-03-01T04:55:28.976Z,0.52
2024-03-01T04:56:29.020Z,0.53
2024-03-01T04:57:29.124Z,0.51
2024-03-01T04:58:29.163Z,0.52
2024-03-01T04:59:29.210Z,0.51
2024-03-01T05:00:29.262Z,0.52
2024-03-01T05:01:29.369Z,0.51
2024-03-01T05:02:29.373Z,0.53
2024-03-01T05:03:29.429Z,0.52
2024-03-01T05:04:29.468Z,0.52
2024-03-01T05:05:29.498Z,0.52
2024-03-01T05:06:29.550Z,0.50
2024-03-01T05:07:29.814Z,0.52
2024-03-01T05:08:29.673Z,0.53
2024-03-01T05:09:29.737Z,0.51
2024-03-01T05:10:29.871Z,0.51
2024-03-01T05:11:29.917Z,0.51
2024-03-01T05:12:29.951Z,0.51
2024-03-01T05:13:30.197Z,0.51
2024-03-01T05:14:30.072Z,0.51
2024-03-01T05:15:30.144Z,0.51
2024-03-01T05:16:30.229Z,0.51
2024-03-01T05:17:30.268Z,0.51
2024-03-01T05:18:30.331Z,0.51
2024-03-01T05:19:30.414Z,0.52
2024-03-01T05:20:30.461Z,0.52
2024-03-01T05:21:30.515Z,0.50
2024-03-01T05:22:30.599Z,0.51
2024-03-01T05:23:31.680Z,0.51
2024-03-01T05:24:30.645Z,0.52
2024-03-01T05:25:30.744Z,0.53
2024-03-01T05:26:30.648Z,0.53
2024-03-01T05:27:30.667Z,0.52
2024-03-01T05:28:30.712Z,0.52
2024-03-01T05:29:30.777Z,0.52
2024-03-01T05:30:41.810Z,0.52
2024-03-01T05:31:34.177Z,0.52
2024-03-01T05:32:30.686Z,0.52
2024-03-01T05:33:30.669Z,0.53
2024-03-01T05:34:30.732Z,0.53
2024-03-01T05:35:30.672Z,0.53
2024-03-01T05:36:30.680Z,0.52
2024-03-01T05:37:30.725Z,0.51
2024-03-01T05:38:30.673Z,0.50
2024-03-01T05:39:30.678Z,0.50
2024-03-01T05:40:32.419Z,0.50
2024-03-01T05:41:30.679Z,0.51
2024-03-01T05:42:30.717Z,0.51
2024-03-01T05:43:30.710Z,0.49
2024-03-01T05:44:30.688Z,0.50
2024-03-01T05:45:30.723Z,0.48
2024-03-01T05:46:30.727Z,0.51
2024-03-01T05:47:30.762Z,0.50
2024-03-01T05:48:30.701Z,0.50
2024-03-01T05:49:30.734Z,0.51
2024-03-01T05:50:30.705Z,0.52
2024-03-01T05:51:30.704Z,0.51
2024-03-01T05:52:30.751Z,0.51
2024-03-01T05:53:30.711Z,0.52
2024-03-01T05:54:30.926Z,0.53
2024-03-01T05:55:30.790Z,0.52
2024-03-01T05:56:30.781Z,0.54
2024-03-01T05:57:30.879Z,0.54
2024-03-01T05:58:30.975Z,0.54
2024-03-01T05:59:30.972Z,0.55
2024-03-01T06:00:31.039Z,0.55
2024-03-01T06:01:31.302Z,0.55
2024-03-01T06:02:31.150Z,0.55
2024-03-01T06:03:31.218Z,0.55
2024-03-01T06:04:31.433Z,0.54
2024-03-01T06:05:31.302Z,0.54
2024-03-01T06:06:31.343Z,0.53
2024-03-01T06:07:31.517Z,0.53
2024-03-01T06:08:31.478Z,0.53
2024-03-01T06:09:31.513Z,0.53
2024-03-01T06:10:31.590Z,0.53
2024-03-01T06:11:31.640Z,0.52
2024-03-01T06:12:31.662Z,0.53
2024-03-01T06:13:32.089Z,0.52
2024-03-01T06:14:31.753Z,0.53
2024-03-01T06:15:31.811Z,0.53
2024-03-01T06:16:31.933Z,0.52
2024-03-01T06:17:31.992Z,0.52
2024-03-01T06:18:31.969Z,0.53
2024-03-01T06:19:32.042Z,0.52
2024-03-01T06:20:32.081Z,0.52
2024-03-01T06:21:32.146Z,0.51
2024-03-01T06:22:32.650Z,0.52
2024-03-01T06:23:32.276Z,0.52
2024-03-01T06:24:32.641Z,0.55
2024-03-01T06:25:32.405Z,0.56
2024-03-01T06:26:32.462Z,0.58
2024-03-01T06:27:32.542Z,0.57
2024-03-01T06:28:32.627Z,0.59
2024-03-01T06:29:32.685Z,0.60
2024-03-01T06:30:32.719Z,0.61
2024-03-01T06:31:33.078Z,0.62
2024-03-01T06:32:32.810Z,0.63
2024-03-01T06:33:32.889Z,0.63
2024-03-01T06:34:32.945Z,0.63
2024-03-01T06:35:32.948Z,0.61
2024-03-01T06:36:32.992Z,0.63
2024-03-01T06:37:33.265Z,0.65
2024-03-01T06:38:33.092Z,0.64
2024-03-01T06:39:33.141Z,0.65
2024-03-01T06:40:33.272Z,0.64
2024-03-01T06:41:33.257Z,0.65
2024-03-01T06:42:33.275Z,0.66
2024-03-01T06:43:33.661Z,0.67
2024-03-01T06:44:33.355Z,0.69
2024-03-01T06:45:33.400Z,0.70
2024-03-01T06:46:33.653Z,0.69
2024-03-01T06:47:33.604Z,0.71
2024-03-01T06:48:33.606Z,0.67
2024-03-01T06:49:33.734Z,0.64
2024-03-01T06:50:33.638Z,0.55
2024-03-01T06:51:33.671Z,0.49
2024-03-01T06:52:34.598Z,0.49
2024-03-01T06:53:34.077Z,0.50
2024-03-01T06:54:33.731Z,0.51
2024-03-01T06:55:33.898Z,0.51
2024-03-01T06:56:34.200Z,0.50
2024-03-01T06:57:34.085Z,0.51
2024-03-01T06:58:33.988Z,0.53
2024-03-01T06:59:33.937Z,0.63
2024-03-01T07:00:34.032Z,0.66
2024-03-01T07:01:34.063Z,0.68
2024-03-01T07:02:34.063Z,0.71
2024-03-01T07:03:34.415Z,0.83
2024-03-01T07:04:34.073Z,0.87
2024-03-01T07:05:34.415Z,1.00
2024-03-01T07:06:34.160Z,1.14
2024-03-01T07:07:34.681Z,1.24
2024-03-01T07:08:34.326Z,1.34
2024-03-01T07:09:34.606Z,1.47
2024-03-01T07:10:34.506Z,1.63
2024-03-01T07:11:34.507Z,1.80
2024-03-01T07:12:34.521Z,1.90
2024-03-01T07:13:34.690Z,2.12
2024-03-01T07:14:34.575Z,2.36
2024-03-01T07:15:35.604Z,2.57
2024-03-01T07:16:34.797Z,3.02
2024-03-01T07:17:34.862Z,3.44
2024-03-01T07:18:35.080Z,3.59
2024-03-01T07:19:34.898Z,3.81
2024-03-01T07:20:34.813Z,4.14
2024-03-01T07:21:35.594Z,4.26
2024-03-01T07:22:35.195Z,4.45
2024-03-01T07:23:35.068Z,4.60
2024-03-01T07:24:34.888Z,5.00
2024-03-01T07:25:35.012Z,5.20
2024-03-01T07:26:34.928Z,5.26
2024-03-01T07:27:34.948Z,5.48
2024-03-01T07:28:35.163Z,5.66
2024-03-01T07:29:35.061Z,5.79
2024-03-01T07:30:35.057Z,6.01
2024-03-01T07:31:35.321Z,6.30
2024-03-01T07:32:35.082Z,6.40
2024-03-01T07:33:35.585Z,6.76
2024-03-01T07:34:35.515Z,7.00
2024-03-01T07:35:35.105Z,7.45
2024-03-01T07:36:35.106Z,7.57
2024-03-01T07:37:35.346Z,7.84
2024-03-01T07:38:35.573Z,8.04
2024-03-01T07:39:35.131Z,8.29
2024-03-01T07:40:35.264Z,8.55
2024-03-01T07:41:35.207Z,8.66
2024-03-01T07:42:35.264Z,8.99
2024-03-01T07:43:35.284Z,9.03
2024-03-01T07:44:35.299Z,8.89
2024-03-01T07:45:36.079Z,8.93
2024-03-01T07:46:37.111Z,8.68
2024-03-01T07:47:35.423Z,8.46
2024-03-01T07:48:35.577Z,8.40
2024-03-01T07:49:35.470Z,7.57
2024-03-01T07:50:35.618Z,7.06
2024-03-01T07:51:35.591Z,6.44
2024-03-01T07:52:36.339Z,5.86
2024-03-01T07:53:35.708Z,5.38
2024-03-01T07:54:38.580Z,4.98
2024-03-01T07:55:38.316Z,4.82
2024-03-01T07:56:35.324Z,4.82
2024-03-01T07:57:35.344Z,4.26
2024-03-01T07:58:35.693Z,3.86
2024-03-01T07:59:35.374Z,3.61
2024-03-01T08:00:35.431Z,3.30
2024-03-01T08:01:35.645Z,3.08
2024-03-01T08:02:35.347Z,2.93
2024-03-01T08:03:35.394Z,2.76
2024-03-01T08:04:35.665Z,2.58
2024-03-01T08:05:35.350Z,2.50
2024-03-01T08:06:35.357Z,2.38
2024-03-01T08:07:35.406Z,2.29
2024-03-01T08:08:35.587Z,2.11
2024-03-01T08:09:35.625Z,1.91
2024-03-01T08:10:35.468Z,1.78
2024-03-01T08:11:35.419Z,1.55
2024-03-01T08:12:35.367Z,1.30
2024-03-01T08:13:35.409Z,1.14
2024-03-01T08:14:35.591Z,0.96
2024-03-01T08:15:35.355Z,0.83
2024-03-01T08:16:35.416Z,0.75
2024-03-01T08:17:35.385Z,0.69
2024-03-01T08:18:35.646Z,0.66
2024-03-01T08:19:35.454Z,0.62
2024-03-01T08:20:35.378Z,0.61
2024-03-01T08:21:35.378Z,0.65
2024-03-01T08:22:35.407Z,0.64
2024-03-01T08:23:35.592Z,0.67
2024-03-01T08:24:35.370Z,0.70
2024-03-01T08:25:35.664Z,0.76
2024-03-01T08:26:35.410Z,0.82
2024-03-01T08:27:35.475Z,0.88
2024-03-01T08:28:35.545Z,0.99
2024-03-01T08:29:35.583Z,1.05
2024-03-01T08:30:36.101Z,1.12
2024-03-01T08:31:36.352Z,1.20
2024-03-01T08:32:35.734Z,1.35
2024-03-01T08:33:36.147Z,1.45
2024-03-01T08:34:35.878Z,1.54
2024-03-01T08:35:36.108Z,1.66
2024-03-01T08:36:35.801Z,1.79
2024-03-01T08:37:35.835Z,1.87
2024-03-01T08:38:35.980Z,2.00
2024-03-01T08:39:35.823Z,2.10
2024-03-01T08:40:36.245Z,2.22
2024-03-01T08:41:35.983Z,2.37
2024-03-01T08:42:35.861Z,2.41
2024-03-01T08:43:36.173Z,2.56
2024-03-01T08:44:35.902Z,2.66
2024-03-01T08:45:35.929Z,2.79
2024-03-01T08:46:36.100Z,2.94
2024-03-01T08:47:35.992Z,3.24
2024-03-01T08:48:36.114Z,3.42
2024-03-01T08:49:36.028Z,3.57
2024-03-01T08:50:36.022Z,3.62
2024-03-01T08:51:36.107Z,3.60
2024-03-01T08:52:36.159Z,3.56
2024-03-01T08:53:37.109Z,3.71
2024-03-01T08:54:36.614Z,3.71
2024-03-01T08:55:36.808Z,3.96
2024-03-01T08:56:36.329Z,4.00
2024-03-01T08:57:36.419Z,4.19
2024-03-01T08:58:37.642Z,4.23
2024-03-01T08:59:36.644Z,4.49
2024-03-01T09:00:36.582Z,4.53
2024-03-01T09:01:37.175Z,4.70
2024-03-01T09:02:36.665Z,4.75
2024-03-01T09:03:37.109Z,5.08
2024-03-01T09:04:36.847Z,5.37
2024-03-01T09:05:36.866Z,5.45
2024-03-01T09:06:37.337Z,5.61
2024-03-01T09:07:37.017Z,5.73
2024-03-01T09:08:37.086Z,5.89
2024-03-01T09:09:37.143Z,5.99
2024-03-01T09:10:37.523Z,5.74
2024-03-01T09:11:37.698Z,5.55
2024-03-01T09:12:37.328Z,5.28
2024-03-01T09:13:37.550Z,4.91
2024-03-01T09:14:37.426Z,4.68
2024-03-01T09:15:37.423Z,4.36
2024-03-01T09:16:37.549Z,4.14
2024-03-01T09:17:37.639Z,3.85
2024-03-01T09:18:37.657Z,3.73
2024-03-01T09:19:37.707Z,3.45
2024-03-01T09:20:37.660Z,3.22
2024-03-01T09:21:38.135Z,3.11
2024-03-01T09:22:37.811Z,2.96
2024-03-01T09:23:38.119Z,2.85
2024-03-01T09:24:37.706Z,2.83
2024-03-01T09:25:37.748Z,2.78
2024-03-01T09:26:38.128Z,2.67
2024-03-01T09:27:37.759Z,2.62
2024-03-01T09:28:37.846Z,2.49
2024-03-01T09:29:37.969Z,2.45
2024-03-01T09:30:37.900Z,2.40
2024-03-01T09:31:38.216Z,2.19
2024-03-01T09:32:38.149Z,2.11
2024-03-01T09:33:38.016Z,2.00
2024-03-01T09:34:38.132Z,1.86
2024-03-01T09:35:38.635Z,1.79
2024-03-01T09:36:38.246Z,1.69
2024-03-01T09:37:38.371Z,1.54
2024-03-01T09:38:38.634Z,1.47
2024-03-01T09:39:38.391Z,1.40
2024-03-01T09:40:38.561Z,1.35
2024-03-01T09:41:38.467Z,1.30
2024-03-01T09:42:38.556Z,1.20
2024-03-01T09:43:38.644Z,1.20
2024-03-01T09:44:38.664Z,1.19
2024-03-01T09:45:38.850Z,1.17
2024-03-01T09:46:38.880Z,1.15
2024-03-01T09:47:38.842Z,1.21
2024-03-01T09:48:40.140Z,1.19
2024-03-01T09:49:38.957Z,1.24
2024-03-01T09:50:38.961Z,1.28
2024-03-01T09:51:38.962Z,1.29
2024-03-01T09:52:39.029Z,1.32
2024-03-01T09:53:39.139Z,1.36
2024-03-01T09:54:39.055Z,1.42
2024-03-01T09:55:39.321Z,1.44
2024-03-01T09:56:39.089Z,1.44
2024-03-01T09:57:39.096Z,1.47
2024-03-01T09:58:39.273Z,1.52
2024-03-01T09:59:39.182Z,1.59
2024-03-01T10:00:39.256Z,1.64
2024-03-01T10:01:39.576Z,1.76
2024-03-01T10:02:39.643Z,1.80
2024-03-01T10:03:39.277Z,1.92
2024-03-01T10:04:40.822Z,2.00
2024-03-01T10:05:39.360Z,2.12
2024-03-01T10:06:39.316Z,2.30
2024-03-01T10:07:39.728Z,2.39
2024-03-01T10:08:39.339Z,2.48
2024-03-01T10:09:39.326Z,2.61
2024-03-01T10:10:39.477Z,2.80
2024-03-01T10:11:39.342Z,2.92
2024-03-01T10:12:39.381Z,3.10
2024-03-01T10:13:39.730Z,3.21
2024-03-01T10:14:39.328Z,3.32
2024-03-01T10:15:39.339Z,3.41
2024-03-01T10:16:39.390Z,3.45
2024-03-01T10:17:39.410Z,3.57
2024-03-01T10:18:39.362Z,3.49
2024-03-01T10:19:39.398Z,3.47
2024-03-01T10:20:39.338Z,3.38
2024-03-01T10:21:39.341Z,3.24
2024-03-01T10:22:39.386Z,3.15
2024-03-01T10:23:39.671Z,3.06
2024-03-01T10:24:39.686Z,2.92
2024-03-01T10:25:39.377Z,2.90
2024-03-01T10:26:39.367Z,2.81
2024-03-01T10:27:39.366Z,2.68
2024-03-01T10:28:39.770Z,2.61
2024-03-01T10:29:39.422Z,2.57
2024-03-01T10:30:40.370Z,2.40
2024-03-01T10:31:39.434Z,2.44
2024-03-01T10:32:40.398Z,2.33
2024-03-01T10:33:39.957Z,2.24
2024-03-01T10:34:39.543Z,2.16
2024-03-01T10:35:39.445Z,2.07
2024-03-01T10:36:39.482Z,1.96
2024-03-01T10:37:39.605Z,1.87
2024-03-01T10:38:39.679Z,1.86
2024-03-01T10:39:39.608Z,1.81
2024-03-01T10:40:39.690Z,1.80
2024-03-01T10:41:41.748Z,1.75
2024-03-01T10:42:39.662Z,1.78
2024-03-01T10:43:40.229Z,1.80
2024-03-01T10:44:39.673Z,1.80
2024-03-01T10:45:39.668Z,1.85
2024-03-01T10:46:39.719Z,1.94
2024-03-01T10:47:40.204Z,2.00
2024-03-01T10:48:40.166Z,2.18
2024-03-01T10:49:39.869Z,2.27
2024-03-01T10:50:39.697Z,2.49
2024-03-01T10:51:39.683Z,2.72
2024-03-01T10:52:40.830Z,2.85
2024-03-01T10:53:40.170Z,3.01
2024-03-01T10:54:39.681Z,3.14
2024-03-01T10:55:39.746Z,3.27
2024-03-01T10:56:39.685Z,3.43
2024-03-01T10:57:40.450Z,3.54
2024-03-01T10:58:39.827Z,3.66
2024-03-01T10:59:40.171Z,3.87
2024-03-01T11:00:39.715Z,4.10
2024-03-01T11:01:39.762Z,4.19
2024-03-01T11:02:39.702Z,4.10
2024-03-01T11:03:39.695Z,4.14
2024-03-01T11:04:39.743Z,4.10
2024-03-01T11:05:39.829Z,4.05
2024-03-01T11:06:39.699Z,4.01
2024-03-01T11:07:39.771Z,3.93
2024-03-01T11:08:40.190Z,3.65
2024-03-01T11:09:39.712Z,3.52
2024-03-01T11:10:40.000Z,3.36
2024-03-01T11:11:39.775Z,3.29
2024-03-01T11:12:40.174Z,3.11
2024-03-01T11:13:39.966Z,3.09
2024-03-01T11:14:39.715Z,3.07
2024-03-01T11:15:39.752Z,3.05
2024-03-01T11:16:39.768Z,3.15
2024-03-01T11:17:39.749Z,3.19
2024-03-01T11:18:40.171Z,3.35
2024-03-01T11:19:39.795Z,3.42
2024-03-01T11:20:39.773Z,3.73
2024-03-01T11:21:39.954Z,3.89
2024-03-01T11:22:39.931Z,4.12
2024-03-01T11:23:40.218Z,4.38
2024-03-01T11:24:39.986Z,4.54
2024-03-01T11:25:40.143Z,4.81
2024-03-01T11:26:40.100Z,5.16
2024-03-01T11:27:40.162Z,5.34
2024-03-01T11:28:40.767Z,5.29
2024-03-01T11:29:40.259Z,5.28
2024-03-01T11:30:40.358Z,5.45
2024-03-01T11:31:40.398Z,5.22
2024-03-01T11:32:40.719Z,5.28
2024-03-01T11:33:40.677Z,5.18
2024-03-01T11:34:40.619Z,5.01
2024-03-01T11:35:40.650Z,4.78
2024-03-01T11:36:40.694Z,4.73
2024-03-01T11:37:40.816Z,4.66
2024-03-01T11:38:40.837Z,4.47
2024-03-01T11:39:40.877Z,4.43
2024-03-01T11:40:41.056Z,4.26
2024-03-01T11:41:40.916Z,3.99
2024-03-01T11:42:40.924Z,3.77
2024-03-01T11:43:41.031Z,3.58
2024-03-01T11:44:41.024Z,3.31
2024-03-01T11:45:41.007Z,3.12
2024-03-01T11:46:41.436Z,2.96
2024-03-01T11:47:41.108Z,2.73
2024-03-01T11:48:41.191Z,2.47
2024-03-01T11:49:41.241Z,2.27
2024-03-01T11:50:41.230Z,2.11
2024-03-01T11:51:41.271Z,1.94
2024-03-01T11:52:41.404Z,1.80
2024-03-01T11:53:41.719Z,1.64
2024-03-01T11:54:41.494Z,1.50
2024-03-01T11:55:41.546Z,1.38
2024-03-01T11:56:41.453Z,1.28
2024-03-01T11:57:41.486Z,1.22
2024-03-01T11:58:41.774Z,1.14
2024-03-01T11:59:41.557Z,1.10
2024-03-01T12:00:41.636Z,1.06
2024-03-01T12:01:46.771Z,1.03
2024-03-01T12:02:41.637Z,1.03
2024-03-01T12:03:43.331Z,1.02
2024-03-01T12:04:41.650Z,0.99
2024-03-01T12:05:41.632Z,0.97
2024-03-01T12:06:41.638Z,0.91
2024-03-01T12:07:41.677Z,0.84
2024-03-01T12:08:41.909Z,0.83
2024-03-01T12:09:41.805Z,0.83
2024-03-01T12:10:41.834Z,0.82
2024-03-01T12:11:41.657Z,0.84
2024-03-01T12:12:41.642Z,0.85
2024-03-01T12:13:41.669Z,0.88
2024-03-01T12:14:41.661Z,0.90
2024-03-01T12:15:41.666Z,0.95
2024-03-01T12:16:41.754Z,1.01
2024-03-01T12:17:41.686Z,1.02
2024-03-01T12:18:41.702Z,1.08
2024-03-01T12:19:41.733Z,1.13
2024-03-01T12:20:41.664Z,1.19
2024-03-01T12:21:41.668Z,1.21
2024-03-01T12:22:41.717Z,1.29
2024-03-01T12:23:41.712Z,1.31
2024-03-01T12:24:41.654Z,1.38
2024-03-01T12:25:41.722Z,1.45
2024-03-01T12:26:41.652Z,1.53
2024-03-01T12:27:41.674Z,1.57
2024-03-01T12:28:41.797Z,1.64
2024-03-01T12:29:41.735Z,1.71
2024-03-01T12:30:41.662Z,1.77
2024-03-01T12:31:41.677Z,1.88
2024-03-01T12:32:41.734Z,1.93
2024-03-01T12:33:41.710Z,1.97
2024-03-01T12:34:41.709Z,2.09
2024-03-01T12:35:41.670Z,2.15
2024-03-01T12:36:47.958Z,2.21
2024-03-01T12:37:41.768Z,2.22
2024-03-01T12:38:41.683Z,2.27
2024-03-01T12:39:41.677Z,2.34
2024-03-01T12:40:42.168Z,2.48
2024-03-01T12:41:41.813Z,2.72
2024-03-01T12:42:41.688Z,2.80
2024-03-01T12:43:41.688Z,2.89
2024-03-01T12:44:41.724Z,2.94
2024-03-01T12:45:41.694Z,3.01
2024-03-01T12:46:41.770Z,3.09
2024-03-01T12:47:41.768Z,3.09
2024-03-01T12:48:41.701Z,3.10
2024-03-01T12:49:41.801Z,3.06
2024-03-01T12:50:41.707Z,2.97
2024-03-01T12:51:41.707Z,2.90
2024-03-01T12:52:41.754Z,2.82
2024-03-01T12:53:41.704Z,2.75
2024-03-01T12:54:41.711Z,2.66
2024-03-01T12:55:41.813Z,2.62
2024-03-01T12:56:41.714Z,2.63
2024-03-01T12:57:41.748Z,2.59
2024-03-01T12:58:41.756Z,2.58
2024-03-01T12:59:41.747Z,2.55
2024-03-01T13:00:41.776Z,2.58
2024-03-01T13:01:41.818Z,2.47
2024-03-01T13:02:41.750Z,2.41
2024-03-01T13:03:41.781Z,2.39
2024-03-01T13:04:41.934Z,2.32
2024-03-01T13:05:43.142Z,2.20
2024-03-01T13:06:41.966Z,2.13
2024-03-01T13:07:42.145Z,2.06
2024-03-01T13:08:42.098Z,1.94
2024-03-01T13:09:42.177Z,1.85
2024-03-01T13:10:42.322Z,1.80
2024-03-01T13:11:42.416Z,1.73
2024-03-01T13:12:42.403Z,1.71
2024-03-01T13:13:42.597Z,1.65
2024-03-01T13:14:42.474Z,1.58
2024-03-01T13:15:42.502Z,1.55
2024-03-01T13:16:42.562Z,1.52
2024-03-01T13:17:42.825Z,1.48
2024-03-01T13:18:42.590Z,1.40
2024-03-01T13:19:42.754Z,1.37
2024-03-01T13:20:42.719Z,1.32
2024-03-01T13:21:42.758Z,1.27
2024-03-01T13:22:42.819Z,1.24
2024-03-01T13:23:42.791Z,1.18
2024-03-01T13:24:43.532Z,1.15
2024-03-01T13:25:42.872Z,1.10
2024-03-01T13:26:42.830Z,1.08
2024-03-01T13:27:42.832Z,1.04
2024-03-01T13:28:42.936Z,1.02
2024-03-01T13:29:42.891Z,0.98
2024-03-01T13:30:42.871Z,0.96
2024-03-01T13:31:43.024Z,0.94
2024-03-01T13:32:42.936Z,0.92
2024-03-01T13:33:42.996Z,0.91
2024-03-01T13:34:43.016Z,0.84
2024-03-01T13:35:43.000Z,0.75
2024-03-01T13:36:43.066Z,0.68
2024-03-01T13:37:43.159Z,0.58
2024-03-01T13:38:43.193Z,0.53
2024-03-01T13:39:43.197Z,0.50
2024-03-01T13:40:43.269Z,0.50
2024-03-01T13:41:43.249Z,0.50
2024-03-01T13:42:43.304Z,0.50
2024-03-01T13:43:43.418Z,0.50
2024-03-01T13:44:43.372Z,0.50
2024-03-01T13:45:43.505Z,0.49
2024-03-01T13:46:43.583Z,0.50
2024-03-01T13:47:43.431Z,0.50
2024-03-01T13:48:43.441Z,0.50
2024-03-01T13:49:43.525Z,0.50
2024-03-01T13:50:43.510Z,0.50
2024-03-01T13:51:43.527Z,0.50
2024-03-01T13:52:43.642Z,0.50
2024-03-01T13:53:43.560Z,0.50
2024-03-01T13:54:43.581Z,0.50
2024-03-01T13:55:43.657Z,0.50
2024-03-01T13:56:43.751Z,0.50
2024-03-01T13:57:43.682Z,0.52
2024-03-01T13:58:43.760Z,0.53
2024-03-01T13:59:43.780Z,0.57
2024-03-01T14:00:43.806Z,0.60
2024-03-01T14:01:43.900Z,0.65
2024-03-01T14:02:43.859Z,0.70
2024-03-01T14:03:44.255Z,0.73
2024-03-01T14:04:43.998Z,0.76
2024-03-01T14:05:44.001Z,0.80
2024-03-01T14:06:44.044Z,0.87
2024-03-01T14:07:44.158Z,0.91
2024-03-01T14:08:44.250Z,0.97
2024-03-01T14:09:44.211Z,1.05